Time;durP1;ratioP1;P1;durP2;ratioP2;P2;SDS_P1;SDS_P2;PMS_P1;PMS_P2;Temp;Humidity;BMP_temperature;BMP_pressure;BME280_temperature;BME280_humidity;BME280_pressure;Samples;Min_cycle;Max_cycle;Signal;HPM_P1;HPM_P2
2024/04/23 00:02:08;;;;;;;43.40;40.20;;;1.80;81.90;;;;;;5385939;26;20212;-87
2024/04/23 00:04:33;;;;;;;42.37;39.47;;;1.80;83.00;;;;;;5386230;26;20234;-85
2024/04/23 00:07:00;;;;;;;42.03;38.87;;;1.70;83.90;;;;;;5384144;26;20553;-85
2024/04/23 00:09:26;;;;;;;21.87;20.00;;;1.70;84.30;;;;;;5383797;26;20330;-85
2024/04/23 00:11:53;;;;;;;20.87;19.10;;;1.80;84.30;;;;;;5383851;26;20686;-87
2024/04/23 00:14:18;;;;;;;19.87;18.43;;;1.80;83.90;;;;;;5386157;26;20761;-84
2024/04/23 00:16:56;;;;;;;20.53;18.57;;;1.80;83.50;;;;;;5385284;26;20217;-84
2024/04/23 00:19:22;;;;;;;19.97;18.47;;;1.90;83.10;;;;;;5386066;26;20210;-84
2024/04/23 00:21:47;;;;;;;20.47;18.67;;;2.00;82.60;;;;;;5386018;26;20260;-87
2024/04/23 00:24:13;;;;;;;20.30;18.67;;;2.00;82.20;;;;;;5385989;26;20226;-84
2024/04/23 00:26:38;;;;;;;20.53;19.03;;;1.90;82.10;;;;;;5385456;26;20730;-87
2024/04/23 00:29:04;;;;;;;19.50;18.10;;;1.90;82.10;;;;;;5385983;26;20211;-87
2024/04/23 00:31:30;;;;;;;21.97;19.80;;;1.90;82.00;;;;;;5385516;26;20226;-85
2024/04/23 00:33:55;;;;;;;21.10;19.33;;;1.90;82.00;;;;;;5383535;26;20325;-86
2024/04/23 00:36:21;;;;;;;21.23;19.07;;;1.90;81.90;;;;;;5385290;26;20749;-85
2024/04/23 00:38:46;;;;;;;20.63;18.93;;;1.90;82.00;;;;;;5385375;26;20265;-85
2024/04/23 00:41:12;;;;;;;20.47;18.87;;;1.80;82.10;;;;;;5385693;26;20264;-87
2024/04/23 00:43:37;;;;;;;21.23;19.43;;;1.80;82.40;;;;;;5386118;26;20238;-85
2024/04/23 00:46:05;;;;;;;20.73;19.07;;;1.80;82.30;;;;;;5385554;26;20722;-87
2024/04/23 00:48:32;;;;;;;20.97;19.17;;;1.80;82.60;;;;;;5386509;26;20180;-85
2024/04/23 00:50:58;;;;;;;22.10;19.30;;;1.80;83.00;;;;;;5384214;26;20219;-85
2024/04/23 00:53:23;;;;;;;20.23;18.20;;;1.70;83.90;;;;;;5383366;26;20353;-86
2024/04/23 00:55:49;;;;;;;18.60;17.10;;;1.70;84.50;;;;;;5385321;26;20222;-84
2024/04/23 00:58:15;;;;;;;19.13;17.63;;;1.70;84.70;;;;;;5385407;26;20215;-85
2024/04/23 01:00:41;;;;;;;19.13;17.37;;;1.80;84.30;;;;;;5385794;26;20210;-86
2024/04/23 01:03:06;;;;;;;19.10;17.20;;;1.80;84.10;;;;;;5385246;26;20254;-86
2024/04/23 01:05:32;;;;;;;18.17;16.67;;;1.80;83.50;;;;;;5383855;26;20219;-87
2024/04/23 01:07:57;;;;;;;35.37;32.77;;;1.60;83.90;;;;;;5383000;26;20218;-87
2024/04/23 01:10:23;;;;;;;34.07;31.33;;;1.70;84.30;;;;;;5385491;26;20218;-85
2024/04/23 01:12:48;;;;;;;37.10;34.57;;;1.70;84.20;;;;;;5385085;26;20258;-86
2024/04/23 01:15:15;;;;;;;36.07;33.40;;;1.70;84.00;;;;;;5385767;26;20243;-87
2024/04/23 01:17:42;;;;;;;33.73;31.27;;;1.60;83.80;;;;;;5383499;26;20223;-86
2024/04/23 01:20:11;;;;;;;31.70;29.37;;;1.60;84.50;;;;;;5383162;26;20241;-87
2024/04/23 01:22:54;;;;;;;29.73;27.73;;;1.50;85.20;;;;;;5385270;26;20215;-86
2024/04/23 01:25:22;;;;;;;28.63;26.20;;;1.50;85.90;;;;;;5385492;26;20180;-84
2024/04/23 01:27:48;;;;;;;26.63;24.73;;;1.60;86.30;;;;;;5385011;26;20217;-84
2024/04/23 01:30:16;;;;;;;27.70;25.43;;;1.60;86.30;;;;;;5385783;26;20245;-88
2024/04/23 01:32:45;;;;;;;29.60;26.63;;;1.70;86.10;;;;;;5385541;26;20218;-87
2024/04/23 01:35:12;;;;;;;28.03;25.73;;;1.60;85.90;;;;;;5385414;26;20226;-87
2024/04/23 01:37:41;;;;;;;29.00;26.93;;;1.70;85.70;;;;;;5385446;26;20244;-86
2024/04/23 01:40:09;;;;;;;29.07;26.70;;;1.70;85.40;;;;;;5384969;26;20597;-87
2024/04/23 01:42:36;;;;;;;29.77;27.47;;;1.80;85.50;;;;;;5385759;26;20291;-87
2024/04/23 01:45:02;;;;;;;26.40;24.47;;;1.80;85.70;;;;;;5383192;26;20238;-87
2024/04/23 01:47:28;;;;;;;27.13;25.20;;;1.80;86.00;;;;;;5383737;26;20285;-85
2024/04/23 01:49:54;;;;;;;26.70;24.63;;;1.80;86.20;;;;;;5384887;26;20211;-85
2024/04/23 01:52:20;;;;;;;26.47;24.37;;;1.80;86.10;;;;;;5385190;26;20694;-87
2024/04/23 01:54:46;;;;;;;26.57;23.90;;;1.80;85.90;;;;;;5384951;26;20227;-86
2024/04/23 01:57:12;;;;;;;26.60;24.33;;;1.80;85.10;;;;;;5385609;26;20210;-85
2024/04/23 01:59:52;;;;;;;26.10;24.10;;;2.00;83.90;;;;;;5385289;26;20274;-88
2024/04/23 02:02:19;;;;;;;28.87;26.87;;;2.00;82.60;;;;;;5385952;26;20210;-87
2024/04/23 02:04:45;;;;;;;22.17;20.43;;;2.00;82.00;;;;;;5385555;26;20226;-87
2024/04/23 02:07:12;;;;;;;14.30;12.90;;;2.00;82.00;;;;;;5386028;26;20341;-87
2024/04/23 02:09:40;;;;;;;14.10;13.00;;;2.00;82.50;;;;;;5385470;26;20218;-85
2024/04/23 02:12:06;;;;;;;30.00;28.00;;;2.00;82.50;;;;;;5385715;26;20737;-86
2024/04/23 02:14:32;;;;;;;29.63;27.43;;;1.90;82.30;;;;;;5385119;26;20230;-87
2024/04/23 02:16:58;;;;;;;28.40;26.50;;;1.90;82.20;;;;;;5387776;26;20215;-86
2024/04/23 02:19:23;;;;;;;30.47;27.87;;;1.90;82.10;;;;;;5387279;26;20224;-88
2024/04/23 02:21:49;;;;;;;30.17;27.87;;;1.80;82.00;;;;;;5386915;26;20252;-87
2024/04/23 02:24:14;;;;;;;30.87;28.77;;;1.80;81.90;;;;;;5388898;26;20235;-88
2024/04/23 02:26:40;;;;;;;30.83;28.73;;;1.80;81.70;;;;;;5388449;26;20227;-85
2024/04/23 02:29:05;;;;;;;32.67;30.43;;;1.80;81.70;;;;;;5386940;26;20287;-87
2024/04/23 02:31:31;;;;;;;33.40;31.00;;;1.70;81.40;;;;;;5388931;26;20249;-87
2024/04/23 02:33:56;;;;;;;33.07;30.87;;;1.70;81.20;;;;;;5388952;26;20227;-86
2024/04/23 02:36:22;;;;;;;34.70;32.17;;;1.60;81.10;;;;;;5388345;26;20265;-87
2024/04/23 02:38:47;;;;;;;34.43;32.20;;;1.60;81.10;;;;;;5388673;26;20265;-88
2024/04/23 02:41:13;;;;;;;32.03;29.93;;;1.60;81.00;;;;;;5388750;26;20658;-88
2024/04/23 02:43:38;;;;;;;34.40;31.80;;;1.60;81.00;;;;;;5388308;26;20227;-87
2024/04/23 02:46:04;;;;;;;33.73;31.13;;;1.60;81.00;;;;;;5386547;26;20257;-87
2024/04/23 02:48:29;;;;;;;33.83;31.57;;;1.50;81.00;;;;;;5388877;26;20682;-86
2024/04/23 02:50:55;;;;;;;32.47;30.37;;;1.50;81.10;;;;;;5386777;26;20230;-86
2024/04/23 02:53:20;;;;;;;34.03;31.87;;;1.40;81.10;;;;;;5388526;26;20227;-86
2024/04/23 02:55:46;;;;;;;35.80;33.23;;;1.40;81.10;;;;;;5388941;26;20261;-86
2024/04/23 02:58:11;;;;;;;17.47;16.27;;;1.30;81.20;;;;;;5386501;26;20222;-84
2024/04/23 03:00:37;;;;;;;17.00;15.80;;;1.30;81.20;;;;;;5388737;26;20222;-87
2024/04/23 03:03:02;;;;;;;18.67;16.87;;;1.30;81.30;;;;;;5388725;26;20218;-86
2024/04/23 03:05:28;;;;;;;17.60;16.40;;;1.30;81.30;;;;;;5386603;26;20218;-88
2024/04/23 03:07:53;;;;;;;18.53;17.00;;;1.30;81.30;;;;;;5388496;26;20210;-88
2024/04/23 03:10:19;;;;;;;18.97;17.30;;;1.30;81.40;;;;;;5388333;26;20215;-88
2024/04/23 03:12:44;;;;;;;17.87;16.67;;;1.30;82.00;;;;;;5388312;26;20261;-87
2024/04/23 03:15:10;;;;;;;16.13;14.70;;;1.30;82.50;;;;;;5388789;26;20242;-87
2024/04/23 03:17:36;;;;;;;15.97;14.77;;;1.20;82.90;;;;;;5388507;26;20591;-86
2024/04/23 03:20:02;;;;;;;16.70;15.60;;;1.30;83.20;;;;;;5388470;26;20620;-86
2024/04/23 03:22:27;;;;;;;14.90;13.50;;;1.20;83.40;;;;;;5388061;26;20219;-87
2024/04/23 03:24:53;;;;;;;13.60;12.40;;;1.10;84.60;;;;;;5388659;26;20817;-87
2024/04/23 03:27:18;;;;;;;15.33;11.53;;;1.10;85.40;;;;;;5385555;26;20225;-87
2024/04/23 03:29:44;;;;;;;12.23;11.13;;;1.20;85.70;;;;;;5386862;26;20274;-86
2024/04/23 03:32:09;;;;;;;11.67;10.77;;;1.30;85.30;;;;;;5387639;26;20253;-87
2024/04/23 03:34:35;;;;;;;12.83;10.43;;;1.50;84.60;;;;;;5389253;26;20311;-87
2024/04/23 03:37:00;;;;;;;12.00;11.10;;;1.70;83.60;;;;;;5389032;26;20264;-86
2024/04/23 03:39:26;;;;;;;11.57;10.67;;;1.80;83.20;;;;;;5389534;26;20230;-87
2024/04/23 03:41:59;;;;;;;12.03;10.73;;;1.80;82.90;;;;;;5388987;26;20221;-84
2024/04/23 03:44:25;;;;;;;11.83;11.03;;;1.90;83.00;;;;;;5384385;26;20234;-84
2024/04/23 03:46:51;;;;;;;12.00;10.60;;;1.80;82.90;;;;;;5384701;26;20230;-84
2024/04/23 03:49:16;;;;;;;12.00;11.03;;;1.90;82.80;;;;;;5384436;26;20265;-84
2024/04/23 03:51:42;;;;;;;11.50;10.70;;;2.00;82.60;;;;;;5384467;26;20227;-85
2024/04/23 03:54:07;;;;;;;11.73;10.93;;;2.00;82.60;;;;;;5382036;26;20260;-84
2024/04/23 03:56:33;;;;;;;13.37;12.13;;;2.10;82.50;;;;;;5383969;26;20215;-87
2024/04/23 03:58:59;;;;;;;25.77;23.97;;;2.10;81.70;;;;;;5384128;26;20218;-84
2024/04/23 04:01:24;;;;;;;27.00;24.87;;;2.10;81.60;;;;;;5384044;26;20218;-83
2024/04/23 04:06:34;;;;;;;23.03;21.53;;;2.20;81.90;;;;;;5385802;26;20202;-85
2024/04/23 04:08:59;;;;;;;22.90;21.30;;;2.20;82.00;;;;;;5382078;26;20606;-85
2024/04/23 04:11:24;;;;;;;22.43;20.93;;;2.30;82.80;;;;;;5384375;26;20218;-85
2024/04/23 04:13:50;;;;;;;22.67;20.67;;;2.30;83.30;;;;;;5383954;26;20226;-84
2024/04/23 04:16:16;;;;;;;21.70;20.00;;;2.30;83.80;;;;;;5384163;26;20219;-85
2024/04/23 04:18:41;;;;;;;22.37;20.67;;;2.30;83.70;;;;;;5382054;26;20262;-85
2024/04/23 04:21:07;;;;;;;22.70;20.80;;;2.30;83.80;;;;;;5384079;26;20257;-85
2024/04/23 04:23:33;;;;;;;24.07;22.30;;;2.30;83.80;;;;;;5383648;26;20227;-85
2024/04/23 04:25:58;;;;;;;20.77;18.97;;;2.30;83.60;;;;;;5383477;26;20210;-85
2024/04/23 04:28:24;;;;;;;19.13;17.63;;;2.40;82.80;;;;;;5383392;26;20756;-84
2024/04/23 04:30:49;;;;;;;18.77;17.30;;;2.40;83.00;;;;;;5383720;26;20264;-85
2024/04/23 04:33:15;;;;;;;19.70;18.30;;;2.50;83.40;;;;;;5383452;26;20587;-84
2024/04/23 04:35:40;;;;;;;19.10;17.57;;;2.50;83.50;;;;;;5381616;26;20222;-85
2024/04/23 04:38:06;;;;;;;18.93;17.53;;;2.50;83.40;;;;;;5383360;26;20686;-84
2024/04/23 04:40:31;;;;;;;21.90;19.93;;;2.50;82.90;;;;;;5382918;26;20702;-85
2024/04/23 04:42:57;;;;;;;21.83;20.23;;;2.40;82.70;;;;;;5383468;26;20813;-85
2024/04/23 04:45:23;;;;;;;22.10;20.40;;;2.40;82.70;;;;;;5383271;26;20418;-85
2024/04/23 04:47:49;;;;;;;20.77;19.10;;;2.50;82.70;;;;;;5381657;26;20238;-85
2024/04/23 04:50:17;;;;;;;20.60;19.07;;;2.50;82.60;;;;;;5381388;26;20225;-84
2024/04/23 04:52:43;;;;;;;21.27;19.40;;;2.50;82.20;;;;;;5383234;26;20543;-84
2024/04/23 04:55:09;;;;;;;22.53;20.30;;;2.60;81.80;;;;;;5383119;26;20231;-84
2024/04/23 04:57:34;;;;;;;20.00;18.30;;;2.60;82.10;;;;;;5383395;26;20266;-84
2024/04/23 05:00:00;;;;;;;21.00;19.43;;;2.70;82.50;;;;;;5381058;26;20218;-84
2024/04/23 05:02:26;;;;;;;21.13;19.33;;;2.80;82.70;;;;;;5383516;26;20218;-84
2024/04/23 05:04:53;;;;;;;21.17;19.60;;;2.80;81.60;;;;;;5381161;26;20749;-85
2024/04/23 05:07:19;;;;;;;21.20;19.40;;;2.90;81.50;;;;;;5383148;26;20761;-84
2024/04/23 05:09:44;;;;;;;21.70;20.00;;;3.00;81.70;;;;;;5383390;26;20257;-85
2024/04/23 05:12:10;;;;;;;22.57;20.43;;;3.00;81.80;;;;;;5383010;26;20215;-85
2024/04/23 05:14:35;;;;;;;22.50;20.80;;;3.00;81.70;;;;;;5382832;26;20307;-84
2024/04/23 05:17:01;;;;;;;22.33;20.70;;;2.90;81.00;;;;;;5383067;26;20737;-84
2024/04/23 05:19:26;;;;;;;22.27;20.77;;;2.90;80.70;;;;;;5382766;26;20262;-84
2024/04/23 05:21:52;;;;;;;23.20;21.40;;;3.00;81.10;;;;;;5380923;26;20691;-84
2024/04/23 05:24:17;;;;;;;23.23;21.53;;;3.00;81.20;;;;;;5381051;26;20284;-84
2024/04/23 05:26:43;;;;;;;21.33;19.73;;;3.00;81.30;;;;;;5382427;26;20257;-84
2024/04/23 05:29:08;;;;;;;21.97;20.17;;;3.00;81.20;;;;;;5382555;26;20315;-84
2024/04/23 05:34:18;;;;;;;23.27;21.33;;;3.00;81.30;;;;;;5384239;26;20258;-84
2024/04/23 05:36:44;;;;;;;24.70;22.80;;;3.10;81.70;;;;;;5382796;26;20575;-85
2024/04/23 05:39:09;;;;;;;23.37;21.57;;;3.10;81.80;;;;;;5380635;26;20226;-84
2024/04/23 05:41:35;;;;;;;21.70;20.07;;;3.10;81.80;;;;;;5382358;26;20223;-85
2024/04/23 05:44:01;;;;;;;21.80;20.20;;;3.10;81.80;;;;;;5382500;26;20270;-85
2024/04/23 05:46:26;;;;;;;23.23;21.27;;;3.10;81.30;;;;;;5380501;26;20572;-85
2024/04/23 05:49:29;;;;;;;21.47;19.97;;;3.20;80.60;;;;;;5382620;26;20224;-84
2024/04/23 05:52:32;;;;;;;13.60;12.50;;;3.20;80.10;;;;;;5381549;26;20247;-85
2024/04/23 05:55:31;;;;;;;13.13;12.13;;;3.30;80.70;;;;;;5382389;26;20260;-84
2024/04/23 05:57:57;;;;;;;12.43;11.53;;;3.30;81.40;;;;;;5380692;26;20253;-86
2024/04/23 06:00:23;;;;;;;13.23;12.13;;;3.30;81.60;;;;;;5382888;26;20223;-84
2024/04/23 06:02:49;;;;;;;12.67;11.67;;;3.40;81.80;;;;;;5383018;26;20227;-84
2024/04/23 06:05:15;;;;;;;12.20;11.00;;;3.50;82.00;;;;;;5382759;26;20254;-84
2024/04/23 06:07:40;;;;;;;12.97;10.70;;;3.50;82.20;;;;;;5382328;26;20216;-85
2024/04/23 06:10:06;;;;;;;12.93;11.73;;;3.50;82.40;;;;;;5382656;26;20263;-86
2024/04/23 06:12:32;;;;;;;14.23;13.07;;;3.50;81.90;;;;;;5382562;26;20219;-84
2024/04/23 06:14:57;;;;;;;13.03;11.83;;;3.50;80.70;;;;;;5382345;26;20319;-85
2024/04/23 06:17:27;;;;;;;13.30;12.00;;;3.60;80.90;;;;;;5382570;26;20222;-86
2024/04/23 06:19:53;;;;;;;12.87;11.87;;;3.60;80.90;;;;;;5382646;26;20212;-87
2024/04/23 06:22:24;;;;;;;14.33;11.83;;;3.70;80.80;;;;;;5382211;26;20708;-86
2024/04/23 06:24:52;;;;;;;13.27;12.17;;;3.70;81.00;;;;;;5381913;26;20222;-84
2024/04/23 06:27:18;;;;;;;11.87;10.97;;;3.80;81.70;;;;;;5379832;26;20309;-85
2024/04/23 06:29:44;;;;;;;11.10;10.17;;;3.90;82.00;;;;;;5380176;26;20682;-86
2024/04/23 06:32:09;;;;;;;15.07;12.37;;;4.00;82.30;;;;;;5380025;26;20219;-85
2024/04/23 06:34:35;;;;;;;13.33;12.10;;;4.10;82.00;;;;;;5381979;26;20317;-86
2024/04/23 06:37:01;;;;;;;13.13;11.93;;;4.20;82.00;;;;;;5382167;26;20218;-83
2024/04/23 06:39:26;;;;;;;13.03;12.03;;;4.20;80.80;;;;;;5380098;26;20234;-85
2024/04/23 06:41:52;;;;;;;13.33;12.13;;;4.30;81.20;;;;;;5382006;26;20224;-85
2024/04/23 06:44:17;;;;;;;13.50;12.40;;;4.30;81.10;;;;;;5379759;26;20260;-85
2024/04/23 06:46:43;;;;;;;12.70;11.70;;;4.30;81.10;;;;;;5381669;26;20230;-85
2024/04/23 06:49:08;;;;;;;13.63;12.30;;;4.40;80.30;;;;;;5381744;26;20268;-86
2024/04/23 06:51:34;;;;;;;12.30;11.33;;;4.40;80.20;;;;;;5381649;26;20265;-85
2024/04/23 06:54:00;;;;;;;13.37;12.07;;;4.50;80.90;;;;;;5381709;26;20237;-86
2024/04/23 06:56:25;;;;;;;12.70;11.60;;;4.50;80.50;;;;;;5381651;26;20225;-85
2024/04/23 06:58:51;;;;;;;14.43;12.37;;;4.50;80.40;;;;;;5381482;26;20215;-86
2024/04/23 07:01:16;;;;;;;13.20;11.90;;;4.60;80.60;;;;;;5381485;26;20254;-85
2024/04/23 07:03:42;;;;;;;12.77;11.70;;;4.50;81.00;;;;;;5384882;26;20237;-85
2024/04/23 07:06:07;;;;;;;12.57;11.40;;;4.40;81.40;;;;;;5385314;26;20217;-84
2024/04/23 07:08:33;;;;;;;12.73;11.73;;;4.40;81.80;;;;;;5385426;26;20562;-85
2024/04/23 07:10:58;;;;;;;12.80;11.57;;;4.40;82.50;;;;;;5385310;26;20255;-85
2024/04/23 07:13:24;;;;;;;13.20;12.00;;;4.50;82.50;;;;;;5382999;26;20257;-87
2024/04/23 07:15:50;;;;;;;12.80;11.70;;;4.30;82.30;;;;;;5385155;26;20217;-85
2024/04/23 07:18:15;;;;;;;13.43;12.33;;;4.40;82.30;;;;;;5384868;26;20230;-85
2024/04/23 07:20:41;;;;;;;12.17;11.10;;;4.50;82.30;;;;;;5385345;26;20215;-85
2024/04/23 07:23:06;;;;;;;12.60;11.30;;;4.50;82.40;;;;;;5383253;26;20221;-86
2024/04/23 07:25:32;;;;;;;13.23;12.13;;;4.70;82.40;;;;;;5385084;26;20553;-86
2024/04/23 07:27:58;;;;;;;13.10;11.90;;;4.80;81.80;;;;;;5385401;26;20213;-86
2024/04/23 07:30:26;;;;;;;12.97;11.53;;;5.10;82.00;;;;;;5384962;26;20221;-85
2024/04/23 07:32:55;;;;;;;12.27;11.20;;;5.30;80.00;;;;;;5383382;26;20221;-85
2024/04/23 07:35:21;;;;;;;13.17;11.97;;;5.40;80.00;;;;;;5384861;26;20217;-85
2024/04/23 07:37:47;;;;;;;13.07;11.93;;;5.60;79.90;;;;;;5385223;26;20221;-84
2024/04/23 07:40:12;;;;;;;14.53;13.33;;;5.60;79.80;;;;;;5384817;26;20298;-86
2024/04/23 07:42:38;;;;;;;15.73;14.23;;;5.80;78.70;;;;;;5385319;26;20737;-86
2024/04/23 07:45:04;;;;;;;22.70;20.87;;;5.40;78.10;;;;;;5382795;26;20759;-85
2024/04/23 07:47:30;;;;;;;20.33;18.73;;;5.60;79.00;;;;;;5385206;26;20233;-86
2024/04/23 07:49:55;;;;;;;20.30;18.80;;;5.50;78.20;;;;;;5385682;26;20214;-85
2024/04/23 07:52:21;;;;;;;21.20;19.70;;;5.60;79.20;;;;;;5385338;26;20214;-86
2024/04/23 07:54:51;;;;;;;21.60;19.73;;;5.60;78.60;;;;;;5383147;26;20702;-86
2024/04/23 07:57:19;;;;;;;20.63;19.03;;;5.70;79.40;;;;;;5384916;26;20698;-88
2024/04/23 07:59:45;;;;;;;21.20;19.70;;;5.90;78.20;;;;;;5383256;26;20284;-86
2024/04/23 08:02:11;;;;;;;22.43;20.87;;;6.00;76.20;;;;;;5384552;26;20225;-86
2024/04/23 08:04:37;;;;;;;23.50;22.00;;;6.00;75.00;;;;;;5385060;26;20230;-87
2024/04/23 08:07:03;;;;;;;24.17;22.43;;;6.30;75.60;;;;;;5384397;26;20215;-86
2024/04/23 08:09:29;;;;;;;24.13;22.43;;;6.30;74.20;;;;;;5384738;26;20218;-88
2024/04/23 08:11:54;;;;;;;23.60;22.00;;;6.30;75.10;;;;;;5384066;26;20349;-87
2024/04/23 08:14:20;;;;;;;24.47;22.77;;;6.40;75.00;;;;;;5383659;26;20245;-86
2024/04/23 08:16:46;;;;;;;23.40;21.70;;;6.30;73.50;;;;;;5384091;26;20325;-85
2024/04/23 08:19:13;;;;;;;25.03;22.97;;;6.20;74.20;;;;;;5384329;26;20274;-85
2024/04/23 08:21:39;;;;;;;25.70;24.00;;;6.40;74.00;;;;;;5384351;26;20210;-85
2024/04/23 08:24:08;;;;;;;26.33;24.40;;;6.60;73.40;;;;;;5382516;26;20233;-85
2024/04/23 08:26:34;;;;;;;26.57;24.67;;;6.60;73.60;;;;;;5382172;26;20694;-84
2024/04/23 08:29:00;;;;;;;27.00;25.13;;;6.80;72.80;;;;;;5384398;26;20245;-85
2024/04/23 08:31:26;;;;;;;23.53;21.80;;;6.60;70.70;;;;;;5381861;26;20257;-85
2024/04/23 08:33:51;;;;;;;23.57;20.90;;;6.60;70.60;;;;;;5384416;26;20253;-86
2024/04/23 08:36:17;;;;;;;28.70;26.70;;;6.70;71.10;;;;;;5384264;26;20598;-88
2024/04/23 08:38:43;;;;;;;25.87;24.07;;;6.60;69.80;;;;;;5384096;26;20276;-88
2024/04/23 08:41:15;;;;;;;26.17;24.17;;;6.70;69.90;;;;;;5382489;26;20762;-88
2024/04/23 08:44:06;;;;;;;25.97;23.97;;;6.70;70.70;;;;;;5384589;26;20310;-88
2024/04/23 08:46:32;;;;;;;25.83;23.83;;;6.70;71.10;;;;;;5382766;26;20225;-87
2024/04/23 08:48:58;;;;;;;28.90;26.87;;;7.20;71.40;;;;;;5383397;26;20256;-89
2024/04/23 08:51:24;;;;;;;29.97;27.77;;;7.50;69.90;;;;;;5383969;26;20741;-89
2024/04/23 08:53:50;;;;;;;29.70;27.37;;;7.30;68.60;;;;;;5383422;26;20218;-88
2024/04/23 08:56:23;;;;;;;32.47;30.17;;;7.40;69.10;;;;;;5383570;26;20214;-89
2024/04/23 08:58:49;;;;;;;32.93;30.73;;;7.30;67.30;;;;;;5381987;26;20241;-89
2024/04/23 09:01:22;;;;;;;32.03;29.53;;;7.00;67.00;;;;;;5381481;26;20218;-89
2024/04/23 09:03:51;;;;;;;30.43;28.07;;;6.90;67.20;;;;;;5383877;26;20637;-88
2024/04/23 09:06:17;;;;;;;26.20;24.30;;;7.00;67.80;;;;;;5383513;26;20218;-89
2024/04/23 09:08:44;;;;;;;26.33;24.30;;;6.80;69.40;;;;;;5383305;26;20227;-89
2024/04/23 09:11:10;;;;;;;27.77;25.43;;;6.90;70.10;;;;;;5381404;26;20312;-89
2024/04/23 09:13:35;;;;;;;27.27;24.93;;;7.30;72.40;;;;;;5382844;26;20707;-89
2024/04/23 09:16:01;;;;;;;26.17;24.30;;;7.70;69.70;;;;;;5381249;26;20311;-87
2024/04/23 09:18:27;;;;;;;28.50;26.03;;;7.70;69.40;;;;;;5381139;26;20237;-87
2024/04/23 09:20:54;;;;;;;25.70;23.80;;;7.40;69.60;;;;;;5383268;26;20264;-89
2024/04/23 09:23:19;;;;;;;27.27;25.13;;;7.50;69.40;;;;;;5381169;26;20230;-88
2024/04/23 09:25:46;;;;;;;25.83;23.80;;;7.70;70.30;;;;;;5381458;26;20277;-88
2024/04/23 09:28:20;;;;;;;22.37;20.60;;;8.30;70.40;;;;;;5383069;26;20210;-88
2024/04/23 09:30:46;;;;;;;21.00;19.37;;;8.30;70.30;;;;;;5382918;26;20179;-88
2024/04/23 09:33:12;;;;;;;19.27;17.60;;;8.30;69.20;;;;;;5383110;26;20260;-89
2024/04/23 09:35:38;;;;;;;18.87;17.33;;;7.60;67.60;;;;;;5381304;26;20222;-88
2024/04/23 09:38:06;;;;;;;19.87;18.37;;;8.40;71.10;;;;;;5382887;26;20278;-88
2024/04/23 09:40:39;;;;;;;21.17;19.40;;;8.50;69.10;;;;;;5382553;26;20214;-88
2024/04/23 09:43:06;;;;;;;22.17;20.43;;;8.60;67.90;;;;;;5380784;26;20681;-88
2024/04/23 09:45:31;;;;;;;20.50;18.77;;;8.60;66.40;;;;;;5380786;26;20256;-88
2024/04/23 09:47:57;;;;;;;20.53;19.03;;;8.70;67.00;;;;;;5380771;26;20581;-89
2024/04/23 09:50:28;;;;;;;21.70;20.10;;;9.00;68.00;;;;;;5380830;26;20261;-89
2024/04/23 09:53:01;;;;;;;22.17;20.53;;;9.00;64.70;;;;;;5383359;26;20215;-89
2024/04/23 09:55:26;;;;;;;22.27;20.17;;;8.60;64.00;;;;;;5382431;26;20179;-89
2024/04/23 09:57:52;;;;;;;22.73;21.13;;;9.20;64.20;;;;;;5382304;26;20244;-89
2024/04/23 10:00:20;;;;;;;23.20;21.50;;;8.80;61.60;;;;;;5380390;26;20257;-89
2024/04/23 10:02:56;;;;;;;24.70;22.90;;;9.30;60.40;;;;;;5380331;26;20628;-89
2024/04/23 10:05:29;;;;;;;24.73;22.80;;;9.30;58.60;;;;;;5382020;26;20201;-89
2024/04/23 10:08:03;;;;;;;24.23;22.53;;;8.40;59.60;;;;;;5382208;26;20448;-89
2024/04/23 10:10:51;;;;;;;25.43;23.63;;;8.60;60.30;;;;;;5381989;26;20174;-89
2024/04/23 10:13:24;;;;;;;36.93;34.33;;;8.20;59.80;;;;;;5382251;26;20258;-89
2024/04/23 10:15:56;;;;;;;36.47;33.87;;;8.10;59.30;;;;;;5381951;26;20674;-89
2024/04/23 10:18:34;;;;;;;38.40;35.83;;;8.00;61.40;;;;;;5380137;26;20252;-89
2024/04/23 10:21:05;;;;;;;35.80;33.50;;;8.00;60.30;;;;;;5382118;26;20182;-89
2024/04/23 10:23:32;;;;;;;37.67;35.13;;;8.00;59.20;;;;;;5379953;26;20722;-90
2024/04/23 10:25:58;;;;;;;35.33;32.73;;;8.00;57.90;;;;;;5381802;26;20318;-89
2024/04/23 10:28:23;;;;;;;34.60;32.20;;;8.20;57.20;;;;;;5381515;26;20690;-89
2024/04/23 10:30:49;;;;;;;36.00;33.30;;;8.10;56.00;;;;;;5381883;26;20261;-88
2024/04/23 10:33:17;;;;;;;34.20;31.80;;;8.20;54.90;;;;;;5379585;26;20272;-89
2024/04/23 10:35:44;;;;;;;34.57;32.07;;;8.00;56.10;;;;;;5379902;26;20218;-88
2024/04/23 10:38:15;;;;;;;34.10;31.70;;;8.00;57.70;;;;;;5382553;26;20347;-89
2024/04/23 10:40:46;;;;;;;36.43;33.83;;;8.00;56.70;;;;;;5383454;26;20218;-89
2024/04/23 10:43:14;;;;;;;36.23;33.63;;;8.30;58.40;;;;;;5383045;26;20578;-88
2024/04/23 10:45:40;;;;;;;33.30;30.90;;;8.30;57.00;;;;;;5384875;26;20265;-86
2024/04/23 10:48:07;;;;;;;33.83;31.27;;;8.60;57.70;;;;;;5384890;26;20179;-83
2024/04/23 10:50:33;;;;;;;32.60;30.07;;;8.60;58.00;;;;;;5384687;26;20214;-83
2024/04/23 10:53:02;;;;;;;34.63;32.17;;;8.60;57.40;;;;;;5384713;26;20210;-86
2024/04/23 10:55:28;;;;;;;25.17;23.37;;;8.50;57.10;;;;;;5384789;26;20218;-84
2024/04/23 10:57:55;;;;;;;24.07;22.27;;;8.70;58.00;;;;;;5384953;26;20215;-84
2024/04/23 11:00:34;;;;;;;24.67;22.80;;;9.10;56.70;;;;;;5384732;26;20314;-83
2024/04/23 11:03:20;;;;;;;24.63;22.90;;;8.80;56.50;;;;;;5384596;26;20759;-84
2024/04/23 11:05:47;;;;;;;24.93;23.13;;;8.70;56.10;;;;;;5360390;26;20210;-83
2024/04/23 11:08:23;;;;;;;24.90;23.10;;;8.70;56.80;;;;;;5382837;26;20218;-83
2024/04/23 11:10:50;;;;;;;24.37;22.67;;;8.60;56.50;;;;;;5384888;26;20201;-83
2024/04/23 11:13:26;;;;;;;24.50;22.80;;;8.90;58.00;;;;;;5382865;26;20261;-86
2024/04/23 11:15:54;;;;;;;25.80;23.90;;;8.80;55.80;;;;;;5384957;26;20219;-83
2024/04/23 11:18:20;;;;;;;24.83;22.83;;;9.30;56.60;;;;;;5384727;26;20323;-83
2024/04/23 11:20:47;;;;;;;23.90;22.20;;;9.40;55.30;;;;;;5382788;26;20273;-83
2024/04/23 11:23:20;;;;;;;24.47;22.70;;;9.30;53.10;;;;;;5384427;26;20218;-82
2024/04/23 11:25:45;;;;;;;25.37;23.60;;;9.90;54.70;;;;;;5384480;26;20210;-84
2024/04/23 11:28:11;;;;;;;23.23;21.63;;;10.20;51.80;;;;;;5384460;26;20214;-84
2024/04/23 11:30:37;;;;;;;24.80;23.00;;;10.40;55.50;;;;;;5382640;26;20311;-83
2024/04/23 11:33:03;;;;;;;25.70;23.80;;;10.70;52.70;;;;;;5384120;26;20222;-83
2024/04/23 11:35:30;;;;;;;24.10;22.40;;;10.90;50.60;;;;;;5384405;26;20635;-86
2024/04/23 11:37:56;;;;;;;24.43;22.73;;;11.00;51.90;;;;;;5384598;26;20214;-84
2024/04/23 11:40:22;;;;;;;23.67;21.97;;;10.50;51.80;;;;;;5384490;26;20214;-83
2024/04/23 11:42:48;;;;;;;24.73;22.93;;;9.70;51.00;;;;;;5384797;26;20257;-83
2024/04/23 11:45:14;;;;;;;25.13;23.10;;;9.70;51.30;;;;;;5384202;26;20257;-83
2024/04/23 11:47:39;;;;;;;24.37;22.67;;;9.60;53.00;;;;;;5384626;26;20710;-82
2024/04/23 11:50:05;;;;;;;24.43;22.67;;;10.00;54.20;;;;;;5383240;26;20324;-84
2024/04/23 11:52:32;;;;;;;24.47;22.67;;;10.10;53.40;;;;;;5384664;26;20318;-83
2024/04/23 11:54:58;;;;;;;24.57;22.67;;;9.90;54.20;;;;;;5382487;26;20250;-83
2024/04/23 11:57:24;;;;;;;24.10;22.40;;;9.70;55.30;;;;;;5384150;26;20568;-84
2024/04/23 11:59:49;;;;;;;24.77;22.87;;;9.70;54.40;;;;;;5382570;26;20292;-83
2024/04/23 12:02:15;;;;;;;24.33;22.60;;;9.60;54.60;;;;;;5384459;26;20214;-83
2024/04/23 12:04:42;;;;;;;23.83;22.17;;;9.60;54.10;;;;;;5381944;26;20601;-84
2024/04/23 12:07:10;;;;;;;23.80;22.00;;;9.90;54.50;;;;;;5383767;26;20582;-83
2024/04/23 12:09:36;;;;;;;25.23;23.43;;;9.60;53.30;;;;;;5383637;26;20250;-83
2024/04/23 12:12:02;;;;;;;24.33;22.33;;;9.40;54.30;;;;;;5383814;26;20215;-83
2024/04/23 12:14:28;;;;;;;24.27;22.23;;;9.80;53.50;;;;;;5383615;26;20671;-82
2024/04/23 12:16:55;;;;;;;25.27;23.33;;;9.50;55.10;;;;;;5383933;26;20265;-83
2024/04/23 12:19:21;;;;;;;24.27;22.57;;;9.50;52.40;;;;;;5383784;26;20319;-83
2024/04/23 12:21:47;;;;;;;26.07;24.00;;;9.70;53.10;;;;;;5384106;26;20214;-83
2024/04/23 12:24:16;;;;;;;25.43;23.53;;;9.80;54.20;;;;;;5383855;26;20226;-83
2024/04/23 12:26:45;;;;;;;25.00;23.10;;;10.10;54.70;;;;;;5381898;26;20687;-82
2024/04/23 12:29:11;;;;;;;24.77;22.67;;;10.40;54.00;;;;;;5383832;26;20281;-83
2024/04/23 12:31:37;;;;;;;24.50;22.70;;;10.80;51.40;;;;;;5383448;26;20214;-83
2024/04/23 12:34:03;;;;;;;23.63;21.97;;;10.20;53.40;;;;;;5383339;26;20241;-83
2024/04/23 12:36:29;;;;;;;25.27;23.27;;;10.20;53.00;;;;;;5381425;26;20248;-83
2024/04/23 12:38:54;;;;;;;24.30;22.57;;;9.90;50.70;;;;;;5383287;26;20245;-83
2024/04/23 12:41:21;;;;;;;25.07;22.87;;;10.30;51.30;;;;;;5383222;26;20210;-84